Terminal Aerodrome Forecast
Issued by NWS

Home | Current Version | Previous Version | Text Only | Print | Product List | Glossary On
Versions: 1 2 3 4 5 6 7 8 9 10 11 12 13 14 15 16 17 18 19 20 21
000
FTUS41 KRLX 242300
TAFCKB
TAF
KCKB 242328Z 2500/2524 34005KT P6SM SKC
     FM250700 00000KT 5SM BR SKC
     FM250800 00000KT 2SM BR SCT001
     FM250900 00000KT 1/4SM FG VV001
     FM251300 00000KT 2SM BR BKN001
     FM251400 VRB03KT P6SM SKC
     FM251500 04004KT P6SM SCT030
     FM251800 34005KT P6SM SCT035
     FM252000 27005KT P6SM SCT040=

USA.gov is the U.S. government's official web portal to all federal, state and local government web resources and services.